Time;durP1;ratioP1;P1;durP2;ratioP2;P2;SDS_P1;SDS_P2;PMS_P1;PMS_P2;Temp;Humidity;BMP_temperature;BMP_pressure;BME280_temperature;BME280_humidity;BME280_pressure;Samples;Min_cycle;Max_cycle;Signal;HPM_P1;HPM_P2
2022/08/10 00:01:19;;;;;;;7.90;4.85;;;;;;;17.71;59.27;100212.06;5071682;28;20425;-55
2022/08/10 00:03:45;;;;;;;8.90;5.35;;;;;;;17.71;59.04;100215.56;5078479;28;20024;-56
2022/08/10 00:06:10;;;;;;;12.70;5.22;;;;;;;17.81;59.05;100210.22;5074821;28;20123;-55
2022/08/10 00:08:36;;;;;;;11.43;5.28;;;;;;;17.86;59.39;100215.66;5072079;28;20562;-56
2022/08/10 00:11:01;;;;;;;10.13;5.57;;;;;;;17.78;59.44;100212.63;5071751;28;20071;-55
2022/08/10 00:13:27;;;;;;;11.02;5.40;;;;;;;17.81;59.50;100209.41;5070496;28;20020;-55
2022/08/10 00:15:52;;;;;;;9.70;5.03;;;;;;;17.83;59.37;100218.09;5076706;28;20090;-56
2022/08/10 00:18:18;;;;;;;10.68;5.20;;;;;;;17.93;59.21;100217.31;5071229;28;20031;-55
2022/08/10 00:20:43;;;;;;;8.98;5.28;;;;;;;17.79;58.88;100209.63;5071498;28;20036;-56
2022/08/10 00:23:09;;;;;;;7.82;4.80;;;;;;;17.80;59.04;100211.31;5071734;28;20467;-56
2022/08/10 00:25:34;;;;;;;7.43;5.18;;;;;;;17.90;58.19;100207.81;5071903;28;20032;-55
2022/08/10 00:28:00;;;;;;;7.38;5.30;;;;;;;17.95;58.60;100207.03;5070561;28;20485;-56
2022/08/10 00:30:25;;;;;;;9.95;5.20;;;;;;;17.95;58.13;100204.31;5071476;28;20067;-56
2022/08/10 00:32:51;;;;;;;8.68;5.28;;;;;;;17.89;58.51;100208.88;5082174;28;20031;-56
2022/08/10 00:35:16;;;;;;;10.23;4.88;;;;;;;17.86;58.64;100207.53;5078662;28;20090;-56
2022/08/10 00:37:41;;;;;;;8.93;5.57;;;;;;;17.62;59.59;100200.88;5071409;28;20029;-56
2022/08/10 00:40:07;;;;;;;13.43;5.53;;;;;;;17.27;61.35;100199.66;5071528;28;20463;-56
2022/08/10 00:42:33;;;;;;;9.65;5.30;;;;;;;17.13;61.66;100193.09;5072119;28;20126;-57
2022/08/10 00:44:58;;;;;;;7.50;4.97;;;;;;;17.12;61.69;100199.56;5074766;28;20084;-56
2022/08/10 00:47:24;;;;;;;8.50;4.75;;;;;;;17.17;62.61;100194.19;5075264;28;20021;-56
2022/08/10 00:49:49;;;;;;;10.20;5.53;;;;;;;16.90;62.58;100189.72;5074801;28;20024;-55
2022/08/10 00:52:15;;;;;;;9.35;5.90;;;;;;;17.10;62.09;100191.72;5075304;28;20033;-56
2022/08/10 00:54:42;;;;;;;15.48;5.60;;;;;;;17.19;60.96;100198.25;5061507;28;20021;-55
2022/08/10 00:57:07;;;;;;;12.27;5.43;;;;;;;17.13;62.50;100193.91;5081961;28;20024;-56
2022/08/10 00:59:33;;;;;;;10.25;5.35;;;;;;;17.04;62.41;100193.56;5073661;28;20028;-56
2022/08/10 01:01:59;;;;;;;8.68;5.05;;;;;;;17.20;61.71;100197.19;5073427;28;20025;-56
2022/08/10 01:04:24;;;;;;;8.10;5.68;;;;;;;17.31;61.76;100195.34;5074410;28;20043;-56
2022/08/10 01:07:03;;;;;;;9.65;5.18;;;;;;;17.21;61.31;100195.28;5075114;28;20055;-54
2022/08/10 01:09:31;;;;;;;13.48;5.90;;;;;;;17.24;61.15;100189.34;5041495;28;20097;-56
2022/08/10 01:11:56;;;;;;;13.18;5.80;;;;;;;17.10;61.74;100185.47;5074828;28;20024;-56
2022/08/10 01:14:53;;;;;;;16.27;5.70;;;;;;;17.18;60.90;100182.28;5075061;28;20033;-56
2022/08/10 01:17:27;;;;;;;8.57;5.40;;;;;;;17.07;62.16;100181.38;5081668;28;20044;-56
2022/08/10 01:20:01;;;;;;;11.25;5.95;;;;;;;16.69;63.47;100185.19;5073099;28;20025;-56
2022/08/10 01:22:36;;;;;;;9.05;6.10;;;;;;;16.81;62.76;100185.84;5077736;28;20032;-55
2022/08/10 01:25:10;;;;;;;13.50;5.50;;;;;;;17.07;61.86;100184.09;5074396;28;20166;-56
2022/08/10 01:27:45;;;;;;;8.48;5.65;;;;;;;17.01;62.13;100182.47;5074672;28;20146;-56
2022/08/10 01:30:11;;;;;;;8.32;5.68;;;;;;;16.91;62.97;100190.50;5073559;28;20031;-56
2022/08/10 01:32:55;;;;;;;8.05;5.43;;;;;;;16.55;63.84;100191.03;5073429;28;20029;-56
2022/08/10 01:35:38;;;;;;;9.38;6.32;;;;;;;16.73;62.71;100183.59;5074489;28;20115;-55
2022/08/10 01:38:07;;;;;;;9.73;5.55;;;;;;;16.86;62.56;100183.16;5074316;28;20103;-55
2022/08/10 01:40:35;;;;;;;10.70;5.60;;;;;;;16.77;62.95;100179.28;5056597;28;20039;-55
2022/08/10 01:43:03;;;;;;;13.43;5.95;;;;;;;16.78;62.98;100186.38;5056567;28;20166;-56
2022/08/10 01:45:28;;;;;;;11.18;5.55;;;;;;;16.78;63.04;100181.75;5072994;28;20409;-56
2022/08/10 01:50:49;;;;;;;13.55;6.63;;;;;;;16.39;64.19;100187.38;5072934;28;20097;-56
2022/08/10 01:53:19;;;;;;;12.00;5.90;;;;;;;16.33;64.55;100180.31;5072958;28;20024;-57
2022/08/10 01:55:44;;;;;;;10.85;5.90;;;;;;;16.29;64.81;100183.78;5072717;28;20081;-57
2022/08/10 01:58:10;;;;;;;8.50;5.80;;;;;;;16.33;64.63;100190.31;5073879;28;20413;-57
2022/08/10 02:00:37;;;;;;;15.45;6.20;;;;;;;16.32;64.91;100189.47;5055700;28;20028;-56
2022/08/10 02:03:04;;;;;;;11.95;5.85;;;;;;;16.34;65.13;100183.81;5072230;28;20036;-57
2022/08/10 02:05:30;;;;;;;15.50;6.30;;;;;;;16.37;64.50;100181.44;5072234;28;20036;-56
2022/08/10 02:07:55;;;;;;;9.82;5.70;;;;;;;16.26;64.86;100184.28;5072088;28;20032;-56
2022/08/10 02:10:21;;;;;;;9.82;5.60;;;;;;;16.35;65.17;100185.47;5072152;28;20033;-56
2022/08/10 02:12:46;;;;;;;11.80;5.85;;;;;;;16.52;63.98;100188.84;5074496;28;20051;-56
2022/08/10 02:15:15;;;;;;;10.55;6.07;;;;;;;16.37;64.75;100180.59;5072103;28;20036;-56
2022/08/10 02:17:44;;;;;;;11.20;5.43;;;;;;;16.10;65.43;100186.84;5072006;28;20275;-56
2022/08/10 02:20:14;;;;;;;15.50;6.23;;;;;;;16.36;64.38;100184.38;5056095;28;20028;-56
2022/08/10 02:22:39;;;;;;;15.60;6.40;;;;;;;16.41;63.66;100187.13;5072114;28;20285;-56
2022/08/10 02:25:08;;;;;;;8.20;5.80;;;;;;;16.35;64.14;100188.97;5055740;28;20374;-56
2022/08/10 02:27:34;;;;;;;12.18;6.18;;;;;;;16.34;63.94;100186.53;5072406;28;20060;-57
2022/08/10 02:29:59;;;;;;;15.38;6.55;;;;;;;16.41;64.70;100187.13;5060905;28;20021;-56
2022/08/10 02:32:25;;;;;;;12.27;6.22;;;;;;;16.43;64.01;100189.59;5071813;28;20476;-54
2022/08/10 02:34:50;;;;;;;12.43;6.05;;;;;;;16.40;64.69;100190.91;5076914;28;20028;-56
2022/08/10 02:37:16;;;;;;;13.82;6.15;;;;;;;16.43;64.52;100197.72;5074740;28;20127;-57
2022/08/10 02:39:42;;;;;;;11.88;5.82;;;;;;;16.26;64.13;100198.63;5072507;28;20158;-56
2022/08/10 02:42:18;;;;;;;9.57;5.57;;;;;;;16.14;65.43;100201.47;5072787;28;20029;-56
2022/08/10 02:45:03;;;;;;;11.02;5.88;;;;;;;16.16;65.51;100195.84;5056292;28;20360;-57
2022/08/10 02:47:44;;;;;;;9.88;6.30;;;;;;;15.77;66.26;100190.53;5075661;28;20036;-56
2022/08/10 02:50:30;;;;;;;11.68;6.65;;;;;;;15.77;65.55;100187.03;5071737;28;20639;-56
2022/08/10 02:53:02;;;;;;;10.43;6.75;;;;;;;15.83;65.66;100191.44;5055414;28;20431;-57
2022/08/10 02:56:09;;;;;;;10.48;6.35;;;;;;;15.96;66.16;100193.72;5077818;28;20056;-56
2022/08/10 02:58:39;;;;;;;9.50;5.88;;;;;;;15.99;65.23;100190.53;5036306;28;20086;-56
2022/08/10 03:01:08;;;;;;;11.52;6.15;;;;;;;15.82;66.05;100182.50;5032328;28;20045;-57
2022/08/10 03:03:37;;;;;;;11.18;6.28;;;;;;;15.69;67.14;100181.00;5055034;28;20494;-56
2022/08/10 03:06:07;;;;;;;13.43;6.63;;;;;;;15.72;66.49;100183.22;5071153;28;20066;-56
2022/08/10 03:08:33;;;;;;;13.13;6.90;;;;;;;15.85;66.19;100189.28;5055192;28;20078;-57
2022/08/10 03:11:00;;;;;;;13.20;6.78;;;;;;;15.90;66.33;100192.03;5070871;28;20021;-56
2022/08/10 03:13:25;;;;;;;13.73;7.05;;;;;;;15.69;67.27;100190.97;5071610;28;20031;-56
2022/08/10 03:15:51;;;;;;;11.35;6.70;;;;;;;15.62;67.17;100196.56;5054855;28;20378;-57
2022/08/10 03:18:17;;;;;;;15.10;6.43;;;;;;;15.62;66.71;100196.56;5054044;28;20024;-56
2022/08/10 03:20:43;;;;;;;15.85;6.45;;;;;;;15.51;66.79;100189.41;5070991;28;20017;-56
2022/08/10 03:23:14;;;;;;;9.55;6.30;;;;;;;15.64;67.06;100193.63;5054677;28;20028;-56
2022/08/10 03:25:39;;;;;;;14.43;7.03;;;;;;;15.53;66.70;100190.78;5054608;28;20034;-57
2022/08/10 03:28:05;;;;;;;13.00;6.95;;;;;;;15.51;67.68;100184.81;5070833;28;20025;-56
2022/08/10 03:30:30;;;;;;;19.60;7.07;;;;;;;15.40;68.24;100190.34;5070169;28;20394;-56
2022/08/10 03:32:56;;;;;;;13.32;7.20;;;;;;;15.31;68.24;100188.06;5071472;28;20024;-57
2022/08/10 03:35:21;;;;;;;13.55;6.82;;;;;;;15.35;68.14;100187.56;5072236;28;21385;-56
2022/08/10 03:37:47;;;;;;;11.02;6.25;;;;;;;15.43;68.19;100187.97;5070870;28;20602;-56
2022/08/10 03:40:12;;;;;;;11.85;6.60;;;;;;;15.47;67.48;100189.06;5072161;28;20036;-56
2022/08/10 03:42:38;;;;;;;13.15;6.72;;;;;;;15.51;67.76;100189.41;5054062;28;20028;-55
2022/08/10 03:45:04;;;;;;;9.63;6.78;;;;;;;15.40;68.50;100187.63;5070761;28;20523;-57
2022/08/10 03:47:30;;;;;;;10.27;6.22;;;;;;;15.48;67.42;100192.63;5070911;28;20036;-56
2022/08/10 03:49:55;;;;;;;10.73;6.60;;;;;;;15.59;67.05;100191.66;5070298;28;20055;-56
2022/08/10 03:52:21;;;;;;;10.88;6.95;;;;;;;15.50;67.59;100194.00;5073269;28;20024;-56
2022/08/10 03:54:47;;;;;;;18.52;6.65;;;;;;;15.28;68.86;100195.88;5053957;28;20035;-57
2022/08/10 03:57:12;;;;;;;14.52;6.40;;;;;;;15.25;68.52;100191.78;5074730;28;20073;-56
2022/08/10 03:59:38;;;;;;;13.93;6.95;;;;;;;15.11;68.95;100187.81;5078587;28;20121;-57
2022/08/10 04:02:05;;;;;;;10.82;6.20;;;;;;;15.28;69.03;100191.28;5054085;28;20036;-56
2022/08/10 04:04:31;;;;;;;14.05;7.00;;;;;;;15.19;69.08;100191.97;5071368;28;20044;-56
2022/08/10 04:06:57;;;;;;;11.85;6.93;;;;;;;15.18;69.80;100185.75;5070504;28;20103;-56
2022/08/10 04:09:27;;;;;;;14.57;7.60;;;;;;;15.08;69.85;100193.72;5071733;28;20101;-56
2022/08/10 04:11:52;;;;;;;13.63;7.22;;;;;;;14.84;70.45;100196.59;5071992;28;20073;-55
2022/08/10 04:14:17;;;;;;;10.50;6.82;;;;;;;15.05;70.06;100199.59;5071898;28;20448;-55
2022/08/10 04:16:43;;;;;;;10.75;6.80;;;;;;;15.25;69.27;100199.06;5072187;28;20017;-56
2022/08/10 04:19:08;;;;;;;11.93;6.70;;;;;;;15.10;68.82;100197.81;5075527;28;20386;-56
2022/08/10 04:21:37;;;;;;;14.15;7.07;;;;;;;15.22;69.08;100197.66;5074310;28;20035;-56
2022/08/10 04:24:03;;;;;;;15.32;6.72;;;;;;;15.44;68.21;100199.59;5074924;28;20036;-56
2022/08/10 04:26:28;;;;;;;13.52;6.63;;;;;;;15.74;66.83;100199.97;5081343;28;20036;-57
2022/08/10 04:28:53;;;;;;;13.02;7.07;;;;;;;16.04;66.92;100208.69;5076878;28;20368;-57
2022/08/10 04:31:19;;;;;;;13.25;7.05;;;;;;;16.45;64.75;100209.06;5074531;28;20036;-56
2022/08/10 04:33:46;;;;;;;10.65;6.72;;;;;;;16.70;64.09;100201.19;5075274;28;20028;-57
2022/08/10 04:36:11;;;;;;;17.55;6.72;;;;;;;16.86;63.30;100204.03;5058393;28;20878;-57
2022/08/10 04:38:37;;;;;;;11.98;6.85;;;;;;;17.17;62.48;100205.00;5059649;28;20020;-57
2022/08/10 04:41:02;;;;;;;11.80;6.50;;;;;;;17.98;59.33;100206.47;5057409;28;20375;-61
2022/08/10 04:43:28;;;;;;;15.23;7.68;;;;;;;18.76;57.34;100209.00;5075811;28;20036;-56
2022/08/10 04:45:53;;;;;;;15.98;6.60;;;;;;;18.94;56.70;100204.91;5083348;28;20028;-57
2022/08/10 04:48:21;;;;;;;13.75;6.35;;;;;;;19.00;56.50;100206.53;5075812;28;20058;-57
2022/08/10 04:50:46;;;;;;;11.65;6.57;;;;;;;19.01;56.63;100210.88;5075104;28;20025;-57
2022/08/10 04:53:12;;;;;;;13.57;6.60;;;;;;;20.92;51.33;100208.75;5075199;28;20047;-57
2022/08/10 04:55:37;;;;;;;12.60;6.63;;;;;;;22.26;47.85;100208.81;5075061;28;20020;-57
2022/08/10 04:58:03;;;;;;;13.85;6.63;;;;;;;22.37;47.38;100199.34;5074829;28;20024;-58
2022/08/10 05:00:28;;;;;;;13.02;6.20;;;;;;;23.34;45.58;100200.38;5075091;28;20028;-57
2022/08/10 05:02:53;;;;;;;16.77;6.57;;;;;;;23.14;45.87;100212.53;5074433;28;20039;-56
2022/08/10 05:05:19;;;;;;;13.10;7.45;;;;;;;23.64;44.81;100209.91;5077939;28;20053;-56
2022/08/10 05:07:44;;;;;;;11.73;7.45;;;;;;;24.09;44.08;100220.19;5074929;28;20378;-55
2022/08/10 05:10:10;;;;;;;17.88;8.35;;;;;;;23.54;44.91;100220.22;5078296;28;20028;-56
2022/08/10 05:12:36;;;;;;;22.20;8.52;;;;;;;24.27;43.33;100221.13;5075581;28;20047;-57
2022/08/10 05:15:03;;;;;;;19.23;8.60;;;;;;;23.94;44.00;100224.06;5076352;28;20017;-56
2022/08/10 05:17:29;;;;;;;15.82;8.50;;;;;;;24.74;42.93;100219.72;5073656;28;20024;-57
2022/08/10 05:19:54;;;;;;;17.42;8.63;;;;;;;25.96;40.49;100222.97;5074367;28;20368;-57
2022/08/10 05:22:20;;;;;;;17.13;8.50;;;;;;;25.35;40.48;100216.50;5074478;28;20039;-57
2022/08/10 05:24:45;;;;;;;15.48;8.95;;;;;;;24.45;42.27;100224.81;5076981;28;21233;-57
2022/08/10 05:27:10;;;;;;;14.30;8.43;;;;;;;24.42;43.15;100225.44;5079536;28;20020;-57
2022/08/10 05:29:36;;;;;;;15.13;8.38;;;;;;;25.18;41.80;100223.53;5073592;28;20460;-57
2022/08/10 05:32:02;;;;;;;15.63;8.43;;;;;;;25.40;41.25;100219.09;5076809;28;20043;-57
2022/08/10 05:34:28;;;;;;;18.40;8.52;;;;;;;25.75;40.69;100214.50;5076610;28;20025;-57
2022/08/10 05:36:54;;;;;;;19.40;9.40;;;;;;;25.84;40.35;100217.28;5074130;28;20053;-55
2022/08/10 05:39:21;;;;;;;18.98;8.35;;;;;;;26.52;39.28;100214.88;5077682;28;20070;-57
2022/08/10 05:41:49;;;;;;;19.58;8.60;;;;;;;26.87;38.65;100215.66;5056543;28;20375;-56
2022/08/10 05:44:15;;;;;;;14.20;8.25;;;;;;;26.82;38.13;100229.56;5076412;28;20118;-56
2022/08/10 05:46:40;;;;;;;16.13;8.70;;;;;;;27.17;37.58;100218.47;5077493;28;20417;-56
2022/08/10 05:49:06;;;;;;;16.13;8.45;;;;;;;27.14;37.68;100224.63;5073448;28;20024;-57
2022/08/10 05:51:31;;;;;;;15.55;9.10;;;;;;;27.17;37.91;100220.41;5073955;28;20029;-56
2022/08/10 05:53:57;;;;;;;18.17;8.52;;;;;;;26.79;38.90;100230.25;5072937;28;20481;-56
2022/08/10 05:56:23;;;;;;;20.95;8.90;;;;;;;27.11;38.12;100228.03;5074200;28;20094;-57
2022/08/10 05:58:48;;;;;;;14.70;7.88;;;;;;;27.45;37.93;100216.09;5073277;28;20414;-57
2022/08/10 06:01:14;;;;;;;26.00;8.15;;;;;;;28.20;36.35;100222.94;5056512;28;20024;-57
2022/08/10 06:03:45;;;;;;;20.50;7.35;;;;;;;28.39;34.74;100229.56;5071754;28;20109;-56
2022/08/10 06:06:11;;;;;;;23.85;7.82;;;;;;;29.07;34.13;100235.91;5077377;28;20089;-57
2022/08/10 06:08:36;;;;;;;22.58;7.90;;;;;;;28.46;34.81;100234.56;5072304;28;20033;-56
2022/08/10 06:11:03;;;;;;;20.05;7.32;;;;;;;28.58;34.78;100231.03;5056597;28;20020;-56
2022/08/10 06:16:13;;;;;;;32.45;7.57;;;;;;;28.63;34.14;100230.84;5072901;28;20147;-56
2022/08/10 06:18:39;;;;;;;27.75;7.50;;;;;;;28.85;33.68;100234.34;5071977;28;20035;-56
2022/08/10 06:21:05;;;;;;;29.15;6.68;;;;;;;29.84;32.39;100231.34;5071982;28;20021;-56
2022/08/10 06:23:30;;;;;;;27.00;7.20;;;;;;;29.33;32.88;100233.66;5074582;28;20123;-57
2022/08/10 06:25:56;;;;;;;28.10;6.90;;;;;;;29.63;32.58;100241.69;5078332;28;20032;-56
2022/08/10 06:28:22;;;;;;;25.55;7.32;;;;;;;29.42;32.06;100231.56;5073378;28;20055;-57
2022/08/10 06:30:48;;;;;;;35.65;8.00;;;;;;;29.55;32.67;100234.31;5057788;28;20371;-57
2022/08/10 06:33:13;;;;;;;34.00;7.55;;;;;;;29.74;32.38;100242.88;5078827;28;20028;-57
2022/08/10 06:35:39;;;;;;;43.03;7.72;;;;;;;30.83;30.38;100236.56;5072024;28;20020;-57
2022/08/10 06:38:04;;;;;;;37.63;7.30;;;;;;;30.68;30.40;100244.47;5071713;28;20036;-56
2022/08/10 06:40:33;;;;;;;24.90;6.97;;;;;;;31.20;30.41;100247.41;5071417;28;20028;-57
2022/08/10 06:42:58;;;;;;;37.17;8.05;;;;;;;30.90;31.24;100243.09;5073005;28;20119;-57
2022/08/10 06:45:28;;;;;;;52.78;8.57;;;;;;;30.90;30.70;100245.03;5066320;28;20467;-57
2022/08/10 06:47:58;;;;;;;57.05;7.97;;;;;;;31.48;29.98;100250.91;5076950;28;20028;-57
2022/08/10 06:51:03;;;;;;;53.58;8.65;;;;;;;31.69;29.96;100247.03;5072853;28;20032;-56
2022/08/10 06:53:30;;;;;;;54.53;8.32;;;;;;;31.64;29.83;100241.78;5035186;28;20034;-57
2022/08/10 06:55:58;;;;;;;50.03;7.72;;;;;;;31.70;29.65;100251.41;5076780;28;20548;-57
2022/08/10 06:58:25;;;;;;;30.45;7.50;;;;;;;30.79;31.28;100258.56;5054882;28;20040;-57
2022/08/10 07:00:50;;;;;;;65.80;8.93;;;;;;;31.30;30.79;100253.22;5055289;28;20028;-57
2022/08/10 07:03:16;;;;;;;65.70;8.85;;;;;;;31.55;30.40;100259.41;5060288;28;20456;-56
2022/08/10 07:05:46;;;;;;;69.75;10.07;;;;;;;29.83;33.04;100256.53;5076865;28;20044;-57
2022/08/10 07:08:12;;;;;;;57.33;8.73;;;;;;;30.65;31.71;100247.94;5078367;28;20025;-57
2022/08/10 07:10:37;;;;;;;58.67;8.38;;;;;;;30.77;30.91;100260.88;5059004;28;20024;-57
2022/08/10 07:13:02;;;;;;;54.60;9.07;;;;;;;30.23;32.00;100253.00;5058861;28;20066;-57
2022/08/10 07:15:28;;;;;;;64.82;8.63;;;;;;;29.99;32.65;100260.22;5072711;28;20082;-56
2022/08/10 07:17:53;;;;;;;52.15;8.35;;;;;;;30.41;32.12;100248.03;5054107;28;20069;-57
2022/08/10 07:20:19;;;;;;;54.78;8.55;;;;;;;31.05;31.09;100254.53;5072432;28;20412;-57
2022/08/10 07:22:46;;;;;;;55.30;9.00;;;;;;;31.05;30.82;100243.47;5054478;28;20501;-56
2022/08/10 07:25:14;;;;;;;38.55;8.15;;;;;;;31.09;30.51;100250.69;5072651;28;20051;-57
2022/08/10 07:27:40;;;;;;;48.93;8.17;;;;;;;31.44;30.98;100247.25;5070857;28;20016;-57
2022/08/10 07:30:06;;;;;;;47.00;7.20;;;;;;;32.43;29.41;100250.66;5071492;28;20284;-57
2022/08/10 07:32:31;;;;;;;37.65;8.00;;;;;;;32.95;29.00;100244.88;5072381;28;20040;-57
2022/08/10 07:34:57;;;;;;;51.35;7.75;;;;;;;31.92;29.71;100247.94;5071966;28;20040;-57
2022/08/10 07:37:22;;;;;;;39.55;7.50;;;;;;;32.32;30.06;100251.59;5042825;28;20470;-55
2022/08/10 07:39:49;;;;;;;42.22;6.75;;;;;;;31.99;30.08;100253.69;5070928;28;20024;-56
2022/08/10 07:42:15;;;;;;;16.58;5.82;;;;;;;32.38;28.53;100248.16;5070787;28;20066;-55
2022/08/10 07:44:41;;;;;;;9.15;5.10;;;;;;;32.63;27.88;100253.44;5073362;28;20429;-55
2022/08/10 07:47:07;;;;;;;20.23;5.88;;;;;;;31.10;30.36;100255.09;5076847;28;20024;-58
2022/08/10 07:49:37;;;;;;;13.23;5.57;;;;;;;32.98;27.37;100255.28;5071864;28;20020;-56
2022/08/10 07:52:05;;;;;;;11.50;5.25;;;;;;;30.85;29.40;100253.63;5070690;28;20024;-54
2022/08/10 07:54:30;;;;;;;17.97;5.50;;;;;;;28.67;33.06;100256.59;5071671;28;20028;-54
2022/08/10 07:56:59;;;;;;;26.23;6.05;;;;;;;30.28;31.00;100259.16;5054072;28;20024;-56
2022/08/10 07:59:45;;;;;;;10.38;5.25;;;;;;;29.77;31.57;100255.19;5070741;28;20111;-54
2022/08/10 08:02:29;;;;;;;16.42;6.05;;;;;;;29.89;31.89;100255.16;5097008;28;20525;-54
2022/08/10 08:04:59;;;;;;;13.27;5.45;;;;;;;29.42;32.50;100256.41;5060206;28;20090;-54
2022/08/10 08:07:26;;;;;;;9.45;5.55;;;;;;;29.63;32.45;100253.56;5080103;28;20028;-56
2022/08/10 08:09:51;;;;;;;11.00;5.85;;;;;;;30.29;30.84;100263.50;5070596;28;20024;-56
2022/08/10 08:12:17;;;;;;;16.88;6.28;;;;;;;29.69;32.71;100256.91;5070413;28;20055;-56
2022/08/10 08:14:42;;;;;;;10.52;5.53;;;;;;;30.34;31.00;100250.59;5070398;28;20078;-56
2022/08/10 08:17:08;;;;;;;26.33;5.95;;;;;;;28.97;32.36;100254.50;5071916;28;20378;-56
2022/08/10 08:19:33;;;;;;;14.10;5.88;;;;;;;29.42;31.79;100253.66;5069888;28;20037;-57
2022/08/10 08:21:59;;;;;;;22.75;6.38;;;;;;;28.39;33.59;100250.81;5071709;28;20040;-56
2022/08/10 08:24:24;;;;;;;14.20;5.53;;;;;;;27.71;34.02;100257.25;5072009;28;20094;-56
2022/08/10 08:26:50;;;;;;;11.65;5.60;;;;;;;28.24;33.41;100254.19;5074034;28;20036;-56
2022/08/10 08:29:15;;;;;;;15.75;5.65;;;;;;;28.28;33.90;100263.38;5071699;28;20100;-57
2022/08/10 08:31:40;;;;;;;7.82;5.00;;;;;;;29.39;32.18;100259.06;5075605;28;20537;-57
2022/08/10 08:34:06;;;;;;;11.90;5.65;;;;;;;28.55;32.51;100253.78;5071232;28;20481;-55
2022/08/10 08:36:32;;;;;;;25.20;5.60;;;;;;;29.99;30.93;100256.66;5069064;28;20024;-56
2022/08/10 08:38:57;;;;;;;13.38;5.72;;;;;;;29.86;31.30;100262.19;5073459;28;20021;-54
2022/08/10 08:41:49;;;;;;;13.27;5.55;;;;;;;30.05;31.18;100260.78;5072242;28;20025;-56
2022/08/10 08:44:42;;;;;;;11.82;5.15;;;;;;;29.59;31.39;100265.63;5074226;28;20085;-56
2022/08/10 08:47:32;;;;;;;13.43;5.70;;;;;;;29.95;31.27;100261.25;5079609;28;20066;-55
2022/08/10 08:50:05;;;;;;;13.05;5.30;;;;;;;31.09;30.29;100256.22;5059995;28;20017;-56
2022/08/10 08:52:43;;;;;;;10.27;5.50;;;;;;;29.32;32.25;100256.06;5071640;28;20039;-56
2022/08/10 08:55:09;;;;;;;12.43;5.45;;;;;;;31.02;30.40;100244.19;5070167;28;20025;-56
2022/08/10 08:57:42;;;;;;;15.40;5.90;;;;;;;29.82;30.81;100254.94;5071573;28;20041;-56
2022/08/10 09:00:18;;;;;;;11.50;5.80;;;;;;;29.74;31.36;100245.63;5070148;28;20029;-56
2022/08/10 09:03:09;;;;;;;15.98;5.20;;;;;;;28.52;33.43;100241.47;5053346;28;20028;-55
2022/08/10 09:05:54;;;;;;;10.02;5.10;;;;;;;30.04;31.60;100237.06;5074024;28;20094;-57
2022/08/10 09:08:43;;;;;;;17.17;5.95;;;;;;;31.00;30.16;100236.22;5073853;28;20035;-56
2022/08/10 09:11:17;;;;;;;22.50;5.47;;;;;;;31.68;29.50;100231.59;5078976;28;20021;-56
2022/08/10 09:13:48;;;;;;;12.60;5.15;;;;;;;29.22;32.11;100230.53;5074884;28;20022;-56
2022/08/10 09:16:56;;;;;;;16.92;6.10;;;;;;;29.75;31.69;100227.09;5081955;28;20402;-55
2022/08/10 09:19:30;;;;;;;12.38;4.60;;;;;;;30.58;29.90;100225.59;5067732;28;20045;-55
2022/08/10 09:22:24;;;;;;;10.30;4.63;;;;;;;28.29;32.98;100224.47;5073599;28;20027;-55
2022/08/10 09:25:11;;;;;;;8.73;5.18;;;;;;;29.13;31.72;100224.31;5075420;28;20379;-56
2022/08/10 09:27:47;;;;;;;16.88;5.28;;;;;;;29.04;31.49;100232.66;5074629;28;20032;-55
2022/08/10 09:30:20;;;;;;;9.13;4.97;;;;;;;28.09;33.47;100228.84;5074595;28;20028;-54
2022/08/10 09:32:52;;;;;;;14.95;5.28;;;;;;;28.26;33.02;100227.09;5074381;28;20021;-56
2022/08/10 09:35:24;;;;;;;14.63;5.47;;;;;;;29.44;32.09;100226.50;5073429;28;20055;-56
2022/08/10 09:38:16;;;;;;;15.00;5.10;;;;;;;28.65;32.60;100225.78;5074295;28;20024;-56
2022/08/10 09:40:47;;;;;;;12.60;5.05;;;;;;;28.88;32.74;100220.69;5056995;28;20467;-58
2022/08/10 09:43:49;;;;;;;12.18;5.28;;;;;;;28.96;32.80;100230.81;5067102;28;20040;-55
2022/08/10 09:46:25;;;;;;;15.43;4.95;;;;;;;29.50;31.02;100218.00;5074558;28;20467;-57
2022/08/10 09:49:11;;;;;;;18.50;4.97;;;;;;;30.49;30.66;100216.66;5072339;28;20039;-56
2022/08/10 09:51:42;;;;;;;14.80;4.97;;;;;;;29.07;31.78;100225.69;5072962;28;20028;-55
2022/08/10 09:54:19;;;;;;;12.60;4.57;;;;;;;31.19;29.54;100210.59;5074354;28;20024;-55
2022/08/10 09:57:18;;;;;;;8.52;4.38;;;;;;;30.24;29.75;100211.22;5077876;28;20028;-55
2022/08/10 10:00:14;;;;;;;12.75;4.20;;;;;;;29.17;30.25;100202.34;5073927;28;20028;-56
2022/08/10 10:02:51;;;;;;;9.70;4.10;;;;;;;29.15;30.04;100193.59;5073875;28;20545;-55
2022/08/10 10:05:52;;;;;;;8.40;3.90;;;;;;;31.48;28.06;100195.50;5072489;28;20056;-55
2022/08/10 10:08:20;;;;;;;9.52;3.78;;;;;;;29.99;29.01;100201.38;5073899;28;20032;-55
2022/08/10 10:11:04;;;;;;;12.77;3.47;;;;;;;28.31;30.55;100196.56;5074093;28;20454;-55
2022/08/10 10:13:56;;;;;;;6.75;3.83;;;;;;;27.66;31.68;100196.88;5073426;28;20285;-56
2022/08/10 10:16:40;;;;;;;13.80;3.83;;;;;;;29.53;29.36;100186.91;5082116;28;20127;-54
2022/08/10 10:19:14;;;;;;;7.93;3.70;;;;;;;29.73;29.03;100187.94;5073276;28;20035;-55
2022/08/10 10:21:51;;;;;;;15.23;4.90;;;;;;;29.12;30.48;100186.81;5073642;28;20364;-55
2022/08/10 10:24:33;;;;;;;11.35;4.57;;;;;;;29.12;30.17;100186.81;5073191;28;20040;-56
2022/08/10 10:27:13;;;;;;;9.98;4.22;;;;;;;28.72;30.92;100186.63;5073539;28;20111;-55
2022/08/10 10:29:49;;;;;;;12.95;3.85;;;;;;;29.22;29.88;100182.78;5073946;28;20028;-55
2022/08/10 10:32:32;;;;;;;7.03;3.97;;;;;;;29.49;29.55;100180.50;5060428;28;20107;-55
2022/08/10 10:35:13;;;;;;;11.35;4.28;;;;;;;29.55;29.53;100173.56;5072876;28;20370;-56
2022/08/10 10:37:38;;;;;;;11.20;4.22;;;;;;;30.07;28.32;100172.78;5094072;28;20025;-55
2022/08/10 10:40:04;;;;;;;8.65;3.40;;;;;;;27.79;31.67;100161.94;5081029;28;20023;-54
2022/08/10 10:42:38;;;;;;;10.90;3.60;;;;;;;28.26;30.55;100166.47;5078545;28;20107;-55
2022/08/10 10:45:28;;;;;;;12.18;3.80;;;;;;;29.78;28.82;100155.38;5074017;28;20033;-54
2022/08/10 10:48:14;;;;;;;7.70;3.83;;;;;;;29.20;28.89;100158.28;5075082;28;20035;-55
2022/08/10 10:51:06;;;;;;;8.48;3.50;;;;;;;29.97;27.60;100154.72;5073057;28;20024;-55
2022/08/10 10:53:38;;;;;;;7.63;4.15;;;;;;;29.45;28.55;100150.81;5071784;28;20081;-56
2022/08/10 10:56:39;;;;;;;10.23;3.60;;;;;;;29.39;28.15;100154.97;5075902;28;20029;-55
2022/08/10 10:59:24;;;;;;;13.02;3.53;;;;;;;29.21;28.06;100137.03;5072325;28;20029;-56
2022/08/10 11:02:35;;;;;;;10.43;3.47;;;;;;;28.56;27.53;100145.91;5071535;28;20024;-55
2022/08/10 11:05:32;;;;;;;8.57;3.67;;;;;;;29.25;28.58;100148.97;5060611;28;20403;-55
2022/08/10 11:08:04;;;;;;;8.27;3.63;;;;;;;28.39;28.64;100135.03;5072113;28;20036;-55
2022/08/10 11:10:53;;;;;;;7.28;3.60;;;;;;;28.86;28.04;100134.69;5072305;28;20064;-55
2022/08/10 11:13:39;;;;;;;5.85;3.15;;;;;;;28.07;29.01;100134.69;5064785;28;20063;-55
2022/08/10 11:16:04;;;;;;;12.25;3.65;;;;;;;28.74;28.80;100127.22;5072473;28;20028;-55
2022/08/10 11:18:32;;;;;;;8.00;3.70;;;;;;;29.08;29.26;100135.41;5071928;28;20047;-55
2022/08/10 11:21:19;;;;;;;9.98;3.88;;;;;;;28.42;29.22;100131.59;5072618;28;20016;-54
2022/08/10 11:23:51;;;;;;;7.55;3.35;;;;;;;29.16;26.91;100134.50;5072453;28;20608;-55
2022/08/10 11:26:24;;;;;;;8.93;3.08;;;;;;;28.93;27.53;100126.66;5072348;28;20280;-56
2022/08/10 11:28:53;;;;;;;6.72;3.38;;;;;;;28.35;28.38;100128.59;5054504;28;20020;-55
2022/08/10 11:31:34;;;;;;;9.10;3.53;;;;;;;28.56;28.26;100128.56;5059278;28;20035;-55
2022/08/10 11:34:02;;;;;;;10.70;3.55;;;;;;;28.88;28.76;100124.13;5070920;28;20480;-55
2022/08/10 11:36:48;;;;;;;9.98;3.50;;;;;;;28.55;28.60;100115.91;5071580;28;20024;-55
2022/08/10 11:39:26;;;;;;;9.32;3.47;;;;;;;28.37;29.19;100120.78;5077401;28;20382;-55
2022/08/10 11:41:54;;;;;;;6.15;3.90;;;;;;;28.57;28.48;100114.41;5070901;28;20032;-55